メインページ
METAR-TAF:

METAR-TAF

空港 :

クマック, ニューカレドニア

緯度: 20-34S, 経度: 164-17E, 海抜: 23m

METAR: 見つかりません

時間: 15:01 (04:01 UTC)

予報

当レポートは1時間55分前の02:06(UTC)に作成
予報は25日の 02時(UTC)から 25日の 24時(UTC)まで有効
変向風 2kt
視程10km以上
高度3500ftの雲はほとんどない
25日の 03時(UTC)から 25日の 11時(UTC)まで一時的に
高度2000ftの雲はほとんどない, 塔状積雲.
にわか雨

TAF: NWWK 250206Z 2502/2524 VRB02KT 9999 FEW035 TEMPO 2503/2511 SHRA FEW020TCU

4,000以上の空港の気象観測と天気予報(METAR報とTAF報)

利用可能な観測所は地図上に黄色い丸と赤い丸で示す。

丸の上にカーソルを重ねると観測所名を参照できる。

次にクリックすると気象観測と天気予報を参照できる。

マップの切り替え:黒色「×」印の緑ボタンをクリックして拡大、「-」印の緑ボタンをクリックして縮小、緑色の三角印をクリックして隣りの地図に切り替え


METAR-TAF: